createdAt,value
2023-01-09T00:01:42.803Z,12.70
2023-01-09T00:04:11.550Z,12.70
2023-01-09T00:06:42.533Z,12.70
2023-01-09T00:09:11.273Z,12.90
2023-01-09T00:11:39.688Z,12.70
2023-01-09T00:14:09.202Z,12.70
2023-01-09T00:16:40.668Z,12.70
2023-01-09T00:19:09.331Z,12.70
2023-01-09T00:21:38.722Z,12.60
2023-01-09T00:24:08.518Z,12.60
2023-01-09T00:26:36.896Z,12.60
2023-01-09T00:29:07.187Z,12.60
2023-01-09T00:31:35.548Z,12.60
2023-01-09T00:34:10.592Z,12.60
2023-01-09T00:36:39.008Z,12.60
2023-01-09T00:39:07.801Z,12.60
2023-01-09T00:41:40.550Z,12.60
2023-01-09T00:44:14.373Z,12.80
2023-01-09T00:46:46.589Z,12.60
2023-01-09T00:49:18.219Z,12.60
2023-01-09T00:51:46.659Z,12.60
2023-01-09T00:54:18.415Z,12.60
2023-01-09T00:56:47.204Z,12.60
2023-01-09T00:59:15.633Z,12.60
2023-01-09T01:01:44.132Z,12.60
2023-01-09T01:04:30.189Z,12.60
2023-01-09T01:07:17.268Z,12.60
2023-01-09T01:09:45.672Z,12.70
2023-01-09T01:12:14.021Z,12.60
2023-01-09T01:14:42.456Z,12.60
2023-01-09T01:17:10.772Z,12.60
2023-01-09T01:19:39.090Z,12.60
2023-01-09T01:22:08.966Z,12.60
2023-01-09T01:24:37.376Z,12.60
2023-01-09T01:27:05.823Z,12.60
2023-01-09T01:29:34.783Z,12.60
2023-01-09T01:32:03.181Z,12.60
2023-01-09T01:34:31.640Z,12.60
2023-01-09T01:37:00.036Z,12.60
2023-01-09T01:39:29.727Z,12.90
2023-01-09T01:41:58.113Z,12.60
2023-01-09T01:45:00.934Z,12.60
2023-01-09T01:47:39.945Z,12.60
2023-01-09T01:50:17.004Z,12.50
2023-01-09T01:52:49.587Z,12.60
2023-01-09T01:55:20.170Z,12.50
2023-01-09T01:57:53.206Z,12.60
2023-01-09T02:00:28.608Z,12.50
2023-01-09T02:02:57.046Z,12.50
2023-01-09T02:05:25.504Z,12.60
2023-01-09T02:07:53.836Z,12.50
2023-01-09T02:10:24.561Z,12.50
2023-01-09T02:12:53.044Z,12.70
2023-01-09T02:15:21.990Z,12.50
2023-01-09T02:18:23.404Z,12.50
2023-01-09T02:21:00.299Z,12.60
2023-01-09T02:24:09.784Z,12.50
2023-01-09T02:27:06.201Z,12.50
2023-01-09T02:30:29.617Z,12.50
2023-01-09T02:33:22.044Z,12.50
2023-01-09T02:36:13.311Z,12.50
2023-01-09T02:38:57.136Z,12.50
2023-01-09T02:41:36.114Z,12.70
2023-01-09T02:44:17.294Z,12.50
2023-01-09T02:46:45.910Z,12.50
2023-01-09T02:49:18.025Z,12.70
2023-01-09T02:51:54.272Z,12.50
2023-01-09T02:54:34.610Z,12.80
2023-01-09T02:57:19.631Z,12.50
2023-01-09T03:00:08.258Z,12.50
2023-01-09T03:02:48.919Z,12.70
2023-01-09T03:05:26.784Z,12.50
2023-01-09T03:08:02.238Z,12.70
2023-01-09T03:10:38.294Z,12.50
2023-01-09T03:13:11.864Z,12.70
2023-01-09T03:15:42.983Z,12.50
2023-01-09T03:18:15.109Z,12.60
2023-01-09T03:20:45.866Z,12.50
2023-01-09T03:23:14.247Z,12.50
2023-01-09T03:25:42.671Z,12.50
2023-01-09T03:28:27.482Z,12.70
2023-01-09T03:30:56.254Z,12.60
2023-01-09T03:33:24.543Z,12.50
2023-01-09T03:35:54.232Z,12.50
2023-01-09T03:38:22.571Z,12.50
2023-01-09T03:40:51.374Z,12.50
2023-01-09T03:43:19.739Z,12.50
2023-01-09T03:45:48.177Z,12.50
2023-01-09T03:48:16.682Z,12.50
2023-01-09T03:50:47.315Z,12.50
2023-01-09T03:53:17.977Z,12.70
2023-01-09T03:55:47.770Z,12.50
2023-01-09T03:58:16.673Z,12.40
2023-01-09T04:00:48.795Z,12.80
2023-01-09T04:03:19.128Z,12.50
2023-01-09T04:05:49.730Z,12.60
2023-01-09T04:08:19.949Z,12.50
2023-01-09T04:10:48.905Z,12.50
2023-01-09T04:13:17.350Z,12.40
2023-01-09T04:15:45.835Z,12.70
2023-01-09T04:18:14.253Z,12.40
2023-01-09T04:20:43.164Z,12.40
2023-01-09T04:23:11.540Z,12.40
2023-01-09T04:25:41.361Z,12.40
2023-01-09T04:28:09.759Z,12.40
2023-01-09T04:30:38.303Z,12.40
2023-01-09T04:33:06.633Z,12.40
2023-01-09T04:35:34.994Z,12.40
2023-01-09T04:38:03.395Z,12.40
2023-01-09T04:40:31.850Z,12.40
2023-01-09T04:43:01.675Z,12.40
2023-01-09T04:45:30.259Z,12.40
2023-01-09T04:47:58.644Z,12.40
2023-01-09T04:50:26.933Z,12.40
2023-01-09T04:52:55.231Z,12.50
2023-01-09T04:55:23.706Z,12.30
2023-01-09T04:57:52.058Z,12.40
2023-01-09T05:00:22.077Z,12.30
2023-01-09T05:02:50.465Z,12.30
2023-01-09T05:05:18.968Z,12.30
2023-01-09T05:07:47.333Z,12.30
2023-01-09T05:10:15.825Z,12.30
2023-01-09T05:12:45.478Z,12.30
2023-01-09T05:15:14.031Z,12.30
2023-01-09T05:17:43.795Z,12.30
2023-01-09T05:20:12.594Z,12.50
2023-01-09T05:22:40.953Z,12.20
2023-01-09T05:25:10.168Z,12.40
2023-01-09T05:27:38.597Z,12.20
2023-01-09T05:30:08.410Z,12.20
2023-01-09T05:32:36.777Z,12.20
2023-01-09T05:35:07.835Z,12.10
2023-01-09T05:37:36.185Z,12.10
2023-01-09T05:40:05.403Z,12.10
2023-01-09T05:42:33.975Z,12.10
2023-01-09T05:45:02.286Z,12.10
2023-01-09T05:47:30.601Z,12.40
2023-01-09T05:49:58.949Z,12.40
2023-01-09T05:52:28.722Z,12.30
2023-01-09T05:54:57.072Z,12.10
2023-01-09T05:57:25.460Z,12.10
2023-01-09T05:59:53.759Z,12.10
2023-01-09T06:02:22.445Z,12.10
2023-01-09T06:04:50.811Z,12.00
2023-01-09T06:07:22.123Z,12.00
2023-01-09T06:09:52.982Z,12.00
2023-01-09T06:12:21.363Z,12.20
2023-01-09T06:14:49.705Z,12.00
2023-01-09T06:17:18.087Z,11.90
2023-01-09T06:19:46.471Z,12.00
2023-01-09T06:22:15.019Z,11.90
2023-01-09T06:24:43.341Z,11.90
2023-01-09T06:27:13.776Z,11.90
2023-01-09T06:29:42.276Z,11.90
2023-01-09T06:32:10.688Z,11.90
2023-01-09T06:34:38.992Z,11.80
2023-01-09T06:37:07.378Z,11.80
2023-01-09T06:39:35.900Z,11.80
2023-01-09T06:42:04.708Z,11.80
2023-01-09T06:44:36.645Z,11.80
2023-01-09T06:47:05.211Z,11.90
2023-01-09T06:49:33.577Z,11.70
2023-01-09T06:52:05.571Z,11.70
2023-01-09T06:54:34.181Z,11.70
2023-01-09T06:57:02.955Z,12.00
2023-01-09T06:59:31.277Z,11.70
2023-01-09T07:02:01.038Z,11.70
2023-01-09T07:04:29.468Z,11.70
2023-01-09T07:06:57.807Z,11.60
2023-01-09T07:09:26.130Z,11.60
2023-01-09T07:11:54.475Z,11.60
2023-01-09T07:14:22.791Z,11.80
2023-01-09T07:16:51.193Z,11.60
2023-01-09T07:19:20.867Z,11.60
2023-01-09T07:21:49.200Z,11.80
2023-01-09T07:24:17.534Z,11.50
2023-01-09T07:26:46.084Z,11.50
2023-01-09T07:29:14.473Z,11.60
2023-01-09T07:31:42.811Z,11.50
2023-01-09T07:34:11.134Z,11.40
2023-01-09T07:36:40.846Z,11.60
2023-01-09T07:39:09.644Z,11.60
2023-01-09T07:41:38.010Z,11.40
2023-01-09T07:44:11.251Z,11.40
2023-01-09T07:46:40.327Z,11.40
2023-01-09T07:49:08.973Z,11.40
2023-01-09T07:51:39.201Z,11.40
2023-01-09T07:54:09.006Z,11.40
2023-01-09T07:56:37.485Z,11.50
2023-01-09T07:59:05.903Z,11.40
2023-01-09T08:01:34.425Z,11.40
2023-01-09T08:04:02.893Z,11.40
2023-01-09T08:06:31.579Z,11.40
2023-01-09T08:09:00.869Z,11.40
2023-01-09T08:11:30.678Z,11.40
2023-01-09T08:13:59.024Z,11.40
2023-01-09T08:16:27.421Z,11.40
2023-01-09T08:18:55.731Z,11.40
2023-01-09T08:21:24.666Z,11.40
2023-01-09T08:23:53.046Z,11.40
2023-01-09T08:26:21.528Z,11.50
2023-01-09T08:28:51.212Z,11.40
2023-01-09T08:31:19.568Z,11.70
2023-01-09T08:33:47.880Z,11.40
2023-01-09T08:36:16.559Z,11.50
2023-01-09T08:38:44.978Z,11.40
2023-01-09T08:41:31.038Z,11.60
2023-01-09T08:44:18.286Z,11.70
2023-01-09T08:47:04.034Z,11.50
2023-01-09T08:49:32.481Z,11.50
2023-01-09T08:52:00.888Z,11.50
2023-01-09T08:54:31.213Z,11.70
2023-01-09T08:56:59.896Z,11.50
2023-01-09T08:59:29.684Z,11.50
2023-01-09T09:01:58.398Z,11.50
2023-01-09T09:04:26.839Z,11.50
2023-01-09T09:06:55.284Z,11.50
2023-01-09T09:09:25.252Z,11.60
2023-01-09T09:11:53.650Z,11.60
2023-01-09T09:14:39.478Z,11.60
2023-01-09T09:17:09.274Z,11.60
2023-01-09T09:19:39.533Z,11.60
2023-01-09T09:22:07.954Z,11.60
2023-01-09T09:24:36.393Z,11.60
2023-01-09T09:27:12.117Z,11.60
2023-01-09T09:29:40.523Z,11.60
2023-01-09T09:32:10.299Z,11.60
2023-01-09T09:34:38.756Z,11.70
2023-01-09T09:37:07.195Z,11.60
2023-01-09T09:39:35.714Z,11.60
2023-01-09T09:43:01.548Z,11.60
2023-01-09T09:45:44.684Z,11.60
2023-01-09T09:48:32.249Z,11.60
2023-01-09T09:51:34.461Z,11.60
2023-01-09T09:54:09.040Z,11.60
2023-01-09T09:56:52.581Z,11.60
2023-01-09T09:59:26.683Z,11.60
2023-01-09T10:01:59.235Z,11.60
2023-01-09T10:04:33.491Z,11.80
2023-01-09T10:07:06.211Z,11.80
2023-01-09T10:09:45.912Z,11.60
2023-01-09T10:12:28.942Z,11.50
2023-01-09T10:15:00.239Z,11.60
2023-01-09T10:17:50.089Z,11.60
2023-01-09T10:20:50.143Z,11.80
2023-01-09T10:23:57.864Z,11.60
2023-01-09T10:26:31.703Z,11.60
2023-01-09T10:29:38.001Z,11.60
2023-01-09T10:32:30.832Z,11.60
2023-01-09T10:35:33.176Z,11.60
2023-01-09T10:38:19.512Z,11.90
2023-01-09T10:40:54.004Z,11.60
2023-01-09T10:43:34.587Z,11.70
2023-01-09T10:46:07.051Z,11.60
2023-01-09T10:48:39.215Z,11.60
2023-01-09T10:51:20.296Z,11.60
2023-01-09T10:53:53.789Z,11.90
2023-01-09T10:56:25.719Z,11.80
2023-01-09T10:58:57.905Z,11.70
2023-01-09T11:01:30.260Z,11.60
2023-01-09T11:03:59.262Z,11.60
2023-01-09T11:06:39.118Z,11.60
2023-01-09T11:09:08.876Z,11.90
2023-01-09T11:11:40.777Z,11.60
2023-01-09T11:14:17.702Z,11.60
2023-01-09T11:16:53.809Z,11.90
2023-01-09T11:19:22.906Z,11.60
2023-01-09T11:21:51.612Z,11.60
2023-01-09T11:24:31.595Z,11.90
2023-01-09T11:27:23.741Z,11.60
2023-01-09T11:30:24.149Z,11.60
2023-01-09T11:32:52.576Z,11.70
2023-01-09T11:35:28.992Z,11.80
2023-01-09T11:38:08.904Z,11.70
2023-01-09T11:40:49.562Z,12.00
2023-01-09T11:43:38.171Z,11.70
2023-01-09T11:46:10.068Z,11.70
2023-01-09T11:48:42.357Z,11.70
2023-01-09T11:51:23.441Z,11.70
2023-01-09T11:54:23.426Z,11.80
2023-01-09T11:56:53.735Z,11.70
2023-01-09T11:59:26.879Z,12.00
2023-01-09T12:02:43.594Z,11.90
2023-01-09T12:05:27.193Z,11.80
2023-01-09T12:08:12.388Z,11.90
2023-01-09T12:11:05.726Z,11.80
2023-01-09T12:14:00.160Z,11.70
2023-01-09T12:16:37.013Z,12.00
2023-01-09T12:19:40.550Z,11.70
2023-01-09T12:22:21.678Z,11.70
2023-01-09T12:25:16.303Z,11.90
2023-01-09T12:28:01.990Z,11.70
2023-01-09T12:30:49.565Z,11.80
2023-01-09T12:33:35.221Z,11.70
2023-01-09T12:36:17.105Z,11.70
2023-01-09T12:38:54.114Z,11.70
2023-01-09T12:41:54.581Z,11.90
2023-01-09T12:44:51.391Z,11.70
2023-01-09T12:47:48.569Z,11.70
2023-01-09T12:50:59.779Z,11.70
2023-01-09T12:53:34.657Z,11.70
2023-01-09T12:56:08.684Z,11.60
2023-01-09T12:58:45.909Z,11.60
2023-01-09T13:01:19.210Z,11.60
2023-01-09T13:03:55.855Z,11.70
2023-01-09T13:06:25.733Z,11.90
2023-01-09T13:09:08.294Z,11.60
2023-01-09T13:11:43.839Z,11.60
2023-01-09T13:14:19.916Z,11.60
2023-01-09T13:16:51.734Z,11.60
2023-01-09T13:19:26.745Z,11.70
2023-01-09T13:21:56.210Z,11.70
2023-01-09T13:24:31.933Z,11.70
2023-01-09T13:27:03.841Z,11.70
2023-01-09T13:29:37.414Z,11.90
2023-01-09T13:32:25.780Z,12.00
2023-01-09T13:34:58.388Z,11.70
2023-01-09T13:37:33.312Z,11.80
2023-01-09T13:40:06.033Z,11.60
2023-01-09T13:42:39.212Z,11.60
2023-01-09T13:45:22.945Z,11.60
2023-01-09T13:48:30.666Z,11.60
2023-01-09T13:51:56.989Z,11.60
2023-01-09T13:55:17.738Z,11.60
2023-01-09T13:58:22.471Z,11.60
2023-01-09T14:01:03.374Z,11.70
2023-01-09T14:03:35.927Z,11.60
2023-01-09T14:06:18.682Z,11.60
2023-01-09T14:08:51.413Z,11.60
2023-01-09T14:11:23.206Z,11.60
2023-01-09T14:14:23.566Z,11.60
2023-01-09T14:16:52.067Z,11.90
2023-01-09T14:19:34.734Z,11.80
2023-01-09T14:22:03.927Z,11.90
2023-01-09T14:24:41.905Z,11.60
2023-01-09T14:28:11.627Z,11.60
2023-01-09T14:31:12.892Z,11.60
2023-01-09T14:33:41.223Z,11.60
2023-01-09T14:36:21.813Z,11.60
2023-01-09T14:38:53.019Z,11.60
2023-01-09T14:41:45.978Z,11.60
2023-01-09T14:44:29.863Z,11.60
2023-01-09T14:47:04.880Z,11.60
2023-01-09T14:49:38.347Z,11.60
2023-01-09T14:52:16.848Z,11.90
2023-01-09T14:54:45.650Z,11.60
2023-01-09T14:57:30.717Z,11.60
2023-01-09T15:00:00.802Z,11.50
2023-01-09T15:02:33.786Z,11.50
2023-01-09T15:05:09.199Z,11.70
2023-01-09T15:07:44.425Z,11.50
2023-01-09T15:10:19.814Z,11.50
2023-01-09T15:12:53.012Z,11.50
2023-01-09T15:15:23.504Z,11.50
2023-01-09T15:17:57.063Z,11.50
2023-01-09T15:20:28.838Z,11.50
2023-01-09T15:23:00.740Z,11.50
2023-01-09T15:25:40.430Z,11.60
2023-01-09T15:28:32.683Z,11.50
2023-01-09T15:31:05.884Z,11.50
2023-01-09T15:33:35.761Z,11.60
2023-01-09T15:36:11.741Z,11.40
2023-01-09T15:38:41.069Z,11.40
2023-01-09T15:41:12.814Z,11.40
2023-01-09T15:43:45.299Z,11.60
2023-01-09T15:46:16.627Z,11.40
2023-01-09T15:48:45.191Z,11.40
2023-01-09T15:51:18.499Z,11.40
2023-01-09T15:53:50.230Z,11.40
2023-01-09T15:56:24.234Z,11.40
2023-01-09T15:58:55.038Z,11.30
2023-01-09T16:01:31.492Z,11.30
2023-01-09T16:04:07.217Z,11.30
2023-01-09T16:06:38.114Z,11.30
2023-01-09T16:09:16.977Z,11.30
2023-01-09T16:11:49.170Z,11.30
2023-01-09T16:14:27.493Z,11.30
2023-01-09T16:17:01.454Z,11.30
2023-01-09T16:19:33.067Z,11.30
2023-01-09T16:22:03.798Z,11.30
2023-01-09T16:24:42.049Z,11.30
2023-01-09T16:27:30.672Z,11.30
2023-01-09T16:30:01.790Z,11.30
2023-01-09T16:32:33.441Z,11.30
2023-01-09T16:35:06.182Z,11.30
2023-01-09T16:37:36.082Z,11.30
2023-01-09T16:40:29.808Z,11.40
2023-01-09T16:43:03.734Z,11.20
2023-01-09T16:45:36.710Z,11.50
2023-01-09T16:48:12.718Z,11.30
2023-01-09T16:50:41.325Z,11.20
2023-01-09T16:53:16.980Z,11.20
2023-01-09T16:55:46.289Z,11.10
2023-01-09T16:58:18.840Z,11.30
2023-01-09T17:00:48.955Z,11.10
2023-01-09T17:03:20.169Z,11.10
2023-01-09T17:05:51.483Z,11.10
2023-01-09T17:08:25.512Z,11.10
2023-01-09T17:10:55.561Z,11.10
2023-01-09T17:13:24.675Z,11.30
2023-01-09T17:15:55.101Z,11.10
2023-01-09T17:18:25.536Z,11.10
2023-01-09T17:20:56.946Z,11.20
2023-01-09T17:23:26.145Z,11.10
2023-01-09T17:26:16.097Z,11.10
2023-01-09T17:28:49.234Z,11.10
2023-01-09T17:31:19.700Z,11.10
2023-01-09T17:33:48.177Z,11.10
2023-01-09T17:36:25.899Z,11.20
2023-01-09T17:38:55.134Z,11.40
2023-01-09T17:41:24.368Z,11.10
2023-01-09T17:43:53.306Z,11.30
2023-01-09T17:46:28.947Z,11.30
2023-01-09T17:48:58.582Z,10.80
2023-01-09T17:51:27.710Z,11.10
2023-01-09T17:53:56.451Z,11.00
2023-01-09T17:56:27.829Z,11.00
2023-01-09T17:58:56.267Z,11.10
2023-01-09T18:01:26.090Z,11.00
2023-01-09T18:03:54.540Z,10.90
2023-01-09T18:06:24.962Z,11.20
2023-01-09T18:08:53.452Z,10.90
2023-01-09T18:11:23.386Z,10.90
2023-01-09T18:13:54.687Z,10.90
2023-01-09T18:16:27.936Z,10.90
2023-01-09T18:18:59.354Z,11.00
2023-01-09T18:21:30.737Z,10.80
2023-01-09T18:24:01.448Z,10.90
2023-01-09T18:26:29.871Z,10.90
2023-01-09T18:29:00.558Z,10.90
2023-01-09T18:31:31.698Z,10.90
2023-01-09T18:34:02.566Z,10.90
2023-01-09T18:36:31.109Z,11.20
2023-01-09T18:39:02.403Z,10.90
2023-01-09T18:41:32.061Z,10.90
2023-01-09T18:44:02.011Z,10.90
2023-01-09T18:46:34.881Z,10.90
2023-01-09T18:49:05.785Z,10.90
2023-01-09T18:51:36.392Z,11.10
2023-01-09T18:54:08.137Z,10.90
2023-01-09T18:56:39.005Z,10.90
2023-01-09T18:59:07.707Z,11.20
2023-01-09T19:01:37.484Z,11.00
2023-01-09T19:04:06.258Z,10.90
2023-01-09T19:06:34.834Z,10.90
2023-01-09T19:09:03.426Z,10.90
2023-01-09T19:11:31.738Z,10.90
2023-01-09T19:14:00.111Z,11.20
2023-01-09T19:16:28.436Z,11.00
2023-01-09T19:18:58.233Z,11.00
2023-01-09T19:21:27.297Z,11.10
2023-01-09T19:23:55.816Z,11.00
2023-01-09T19:26:26.386Z,11.00
2023-01-09T19:28:57.611Z,11.00
2023-01-09T19:31:28.431Z,11.00
2023-01-09T19:33:59.045Z,11.00
2023-01-09T19:36:28.968Z,11.00
2023-01-09T19:38:57.983Z,11.00
2023-01-09T19:41:27.137Z,11.00
2023-01-09T19:43:55.656Z,11.00
2023-01-09T19:46:27.195Z,11.00
2023-01-09T19:48:58.996Z,11.00
2023-01-09T19:51:27.379Z,11.00
2023-01-09T19:56:29.602Z,11.00
2023-01-09T19:59:00.599Z,11.10
2023-01-09T20:01:31.456Z,11.00
2023-01-09T20:04:05.156Z,11.00
2023-01-09T20:06:33.870Z,11.00
2023-01-09T20:09:05.103Z,11.00
2023-01-09T20:11:33.950Z,11.00
2023-01-09T20:14:02.616Z,11.00
2023-01-09T20:16:42.523Z,11.00
2023-01-09T20:19:14.160Z,11.00
2023-01-09T20:21:43.588Z,11.00
2023-01-09T20:24:15.156Z,11.00
2023-01-09T20:26:43.983Z,11.00
2023-01-09T20:29:12.717Z,11.20
2023-01-09T20:31:41.152Z,11.10
2023-01-09T20:34:12.574Z,11.00
2023-01-09T20:36:41.037Z,11.00
2023-01-09T20:39:12.352Z,11.00
2023-01-09T20:41:41.102Z,11.00
2023-01-09T20:44:13.050Z,11.00
2023-01-09T20:46:44.763Z,11.00
2023-01-09T20:49:18.048Z,11.00
2023-01-09T20:51:50.491Z,11.00
2023-01-09T20:54:22.297Z,11.00
2023-01-09T20:56:50.849Z,11.00
2023-01-09T20:59:21.978Z,11.00
2023-01-09T21:01:50.759Z,11.20
2023-01-09T21:04:20.818Z,11.00
2023-01-09T21:06:50.329Z,11.00
2023-01-09T21:09:18.981Z,11.00
2023-01-09T21:11:47.329Z,11.00
2023-01-09T21:14:15.669Z,11.30
2023-01-09T21:16:53.690Z,11.20
2023-01-09T21:19:24.235Z,11.00
2023-01-09T21:21:53.493Z,11.30
2023-01-09T21:24:22.248Z,11.00
2023-01-09T21:26:50.594Z,11.00
2023-01-09T21:29:18.968Z,11.20
2023-01-09T21:31:47.397Z,11.10
2023-01-09T21:34:20.122Z,11.20
2023-01-09T21:36:50.374Z,11.10
2023-01-09T21:39:19.954Z,11.00
2023-01-09T21:42:05.952Z,11.10
2023-01-09T21:44:51.993Z,11.10
2023-01-09T21:47:20.319Z,11.10
2023-01-09T21:49:48.856Z,11.00
2023-01-09T21:52:19.361Z,11.00
2023-01-09T21:54:47.698Z,11.00
2023-01-09T21:57:16.039Z,11.00
2023-01-09T21:59:44.903Z,11.00
2023-01-09T22:02:15.824Z,11.10
2023-01-09T22:04:48.784Z,11.10
2023-01-09T22:07:18.989Z,11.00
2023-01-09T22:09:47.308Z,11.00
2023-01-09T22:12:15.682Z,11.00
2023-01-09T22:14:44.232Z,10.90
2023-01-09T22:17:12.577Z,10.90
2023-01-09T22:19:40.921Z,10.90
2023-01-09T22:22:09.266Z,10.90
2023-01-09T22:24:39.117Z,10.90
2023-01-09T22:27:07.499Z,11.10
2023-01-09T22:29:35.895Z,10.90
2023-01-09T22:32:04.614Z,10.90
2023-01-09T22:34:32.940Z,10.90
2023-01-09T22:37:01.423Z,10.90
2023-01-09T22:39:29.837Z,10.90
2023-01-09T22:41:59.536Z,11.10
2023-01-09T22:44:27.901Z,10.90
2023-01-09T22:46:57.325Z,10.90
2023-01-09T22:49:29.962Z,11.00
2023-01-09T22:51:58.655Z,10.90
2023-01-09T22:54:27.011Z,11.10
2023-01-09T22:56:55.308Z,10.90
2023-01-09T22:59:25.422Z,10.90
2023-01-09T23:01:54.233Z,10.90
2023-01-09T23:04:22.677Z,11.10
2023-01-09T23:06:51.116Z,11.20
2023-01-09T23:09:19.583Z,10.90
2023-01-09T23:12:03.136Z,10.90
2023-01-09T23:14:35.926Z,10.90
2023-01-09T23:17:05.235Z,10.80
2023-01-09T23:19:36.258Z,10.90
2023-01-09T23:22:05.498Z,10.90
2023-01-09T23:24:34.402Z,10.90
2023-01-09T23:27:02.759Z,11.10
2023-01-09T23:29:32.595Z,11.10
2023-01-09T23:32:00.959Z,11.10
2023-01-09T23:34:29.307Z,10.90
2023-01-09T23:36:57.832Z,10.90
2023-01-09T23:39:26.517Z,10.90
2023-01-09T23:42:12.385Z,10.90
2023-01-09T23:44:42.062Z,10.90
2023-01-09T23:47:10.379Z,10.90
2023-01-09T23:49:38.845Z,10.90
2023-01-09T23:52:08.652Z,11.20
2023-01-09T23:54:37.762Z,10.90
2023-01-09T23:57:06.320Z,10.90
2023-01-09T23:59:34.999Z,11.20
